createdAt,value
2018-06-21T00:00:17.169Z,16.28
2018-06-21T00:03:20.504Z,16.26
2018-06-21T00:06:23.675Z,16.07
2018-06-21T00:09:26.727Z,16.03
2018-06-21T00:12:30.872Z,16.04
2018-06-21T00:15:34.177Z,16.03
2018-06-21T00:18:37.509Z,15.90
2018-06-21T00:21:40.527Z,15.87
2018-06-21T00:24:43.589Z,15.75
2018-06-21T00:27:47.909Z,15.66
2018-06-21T00:30:51.161Z,15.63
2018-06-21T00:33:54.374Z,15.68
2018-06-21T00:36:57.572Z,15.64
2018-06-21T00:40:00.806Z,15.64
2018-06-21T00:43:04.011Z,15.62
2018-06-21T00:46:07.191Z,15.55
2018-06-21T00:49:10.377Z,15.45
2018-06-21T00:52:13.487Z,15.37
2018-06-21T00:55:26.628Z,15.37
2018-06-21T00:58:29.805Z,15.40
2018-06-21T01:01:32.890Z,15.45
2018-06-21T01:04:36.064Z,15.51
2018-06-21T01:07:39.262Z,15.52
2018-06-21T01:10:42.465Z,15.51
2018-06-21T01:13:47.703Z,15.52
2018-06-21T01:16:50.818Z,15.47
2018-06-21T01:19:54.917Z,15.32
2018-06-21T01:22:58.101Z,15.13
2018-06-21T01:26:01.171Z,15.06
2018-06-21T01:29:04.317Z,15.07
2018-06-21T01:32:07.822Z,15.12
2018-06-21T01:35:10.873Z,15.25
2018-06-21T01:38:14.053Z,15.34
2018-06-21T01:41:17.277Z,15.34
2018-06-21T01:44:20.488Z,15.32
2018-06-21T01:47:23.573Z,15.29
2018-06-21T01:50:27.896Z,15.25
2018-06-21T01:53:31.120Z,15.19
2018-06-21T01:56:34.453Z,15.20
2018-06-21T01:59:39.708Z,15.26
2018-06-21T02:02:43.812Z,15.28
2018-06-21T02:05:47.003Z,15.18
2018-06-21T02:08:50.127Z,15.07
2018-06-21T02:11:53.236Z,15.02
2018-06-21T02:14:56.463Z,15.04
2018-06-21T02:18:00.579Z,15.07
2018-06-21T02:21:04.916Z,15.13
2018-06-21T02:24:08.080Z,15.19
2018-06-21T02:27:12.021Z,15.26
2018-06-21T02:30:17.116Z,15.26
2018-06-21T02:33:21.021Z,15.36
2018-06-21T02:36:24.268Z,15.45
2018-06-21T02:39:27.344Z,15.56
2018-06-21T02:42:30.506Z,15.66
2018-06-21T02:45:34.817Z,15.72
2018-06-21T02:48:38.102Z,15.74
2018-06-21T02:51:41.258Z,15.75
2018-06-21T02:54:44.425Z,15.82
2018-06-21T02:57:48.507Z,15.93
2018-06-21T03:00:52.598Z,16.11
2018-06-21T03:03:55.752Z,16.31
2018-06-21T03:07:00.224Z,16.27
2018-06-21T03:10:03.500Z,16.20
2018-06-21T03:13:06.562Z,16.18
2018-06-21T03:16:09.833Z,16.24
2018-06-21T03:19:12.909Z,16.26
2018-06-21T03:22:16.036Z,16.31
2018-06-21T03:25:19.257Z,16.51
2018-06-21T03:28:23.315Z,16.79
2018-06-21T03:31:26.362Z,16.89
2018-06-21T03:34:30.529Z,16.89
2018-06-21T03:37:33.811Z,16.95
2018-06-21T03:40:36.929Z,16.98
2018-06-21T03:43:41.986Z,16.95
2018-06-21T03:46:45.039Z,16.76
2018-06-21T03:49:48.110Z,16.76
2018-06-21T03:52:51.195Z,16.81
2018-06-21T03:55:54.255Z,16.85
2018-06-21T03:58:58.362Z,17.18
2018-06-21T04:02:01.772Z,18.65
2018-06-21T04:05:04.959Z,20.07
2018-06-21T04:08:08.190Z,21.42
2018-06-21T04:11:11.168Z,22.30
2018-06-21T04:14:14.370Z,23.01
2018-06-21T04:17:17.469Z,23.68
2018-06-21T04:20:21.514Z,23.41
2018-06-21T04:23:24.627Z,23.68
2018-06-21T04:26:27.894Z,23.50
2018-06-21T04:29:31.220Z,22.92
2018-06-21T04:32:35.027Z,24.09
2018-06-21T04:35:38.124Z,23.40
2018-06-21T04:38:41.159Z,21.20
2018-06-21T04:41:44.408Z,19.80
2018-06-21T04:44:47.481Z,19.35
2018-06-21T04:47:50.484Z,21.00
2018-06-21T04:50:53.652Z,21.54
2018-06-21T04:53:56.954Z,21.06
2018-06-21T04:57:01.145Z,19.89
2018-06-21T05:00:04.664Z,19.31
2018-06-21T05:03:07.765Z,19.37
2018-06-21T05:06:12.915Z,19.48
2018-06-21T05:09:16.099Z,19.39
2018-06-21T05:12:21.424Z,18.97
2018-06-21T05:15:24.539Z,18.65
2018-06-21T05:18:27.729Z,20.00
2018-06-21T05:21:30.990Z,22.85
2018-06-21T05:24:34.029Z,21.49
2018-06-21T05:27:37.179Z,20.66
2018-06-21T05:30:40.415Z,21.77
2018-06-21T05:33:43.422Z,21.56
2018-06-21T05:36:46.539Z,23.83
2018-06-21T05:39:49.518Z,24.99
2018-06-21T05:42:52.720Z,26.19
2018-06-21T05:45:55.792Z,26.17
2018-06-21T05:48:58.889Z,25.25
2018-06-21T05:52:02.053Z,24.87
2018-06-21T05:55:06.271Z,24.97
2018-06-21T05:58:09.373Z,23.58
2018-06-21T06:01:14.455Z,23.34
2018-06-21T06:04:17.501Z,23.99
2018-06-21T06:07:20.758Z,23.37
2018-06-21T06:10:23.720Z,23.97
2018-06-21T06:13:26.947Z,24.44
2018-06-21T06:16:30.235Z,24.79
2018-06-21T06:19:33.575Z,25.58
2018-06-21T06:22:36.744Z,23.68
2018-06-21T06:25:39.898Z,23.62
2018-06-21T06:28:43.172Z,22.93
2018-06-21T06:31:46.154Z,23.04
2018-06-21T06:34:53.806Z,23.65
2018-06-21T06:37:57.631Z,23.88
2018-06-21T06:41:00.759Z,22.49
2018-06-21T06:44:03.925Z,22.17
2018-06-21T06:47:09.013Z,22.63
2018-06-21T06:50:12.072Z,23.12
2018-06-21T06:53:16.245Z,23.67
2018-06-21T06:56:19.397Z,23.97
2018-06-21T06:59:22.481Z,24.74
2018-06-21T07:02:25.679Z,24.54
2018-06-21T07:05:28.827Z,24.94
2018-06-21T07:08:32.138Z,25.03
2018-06-21T07:11:35.322Z,23.98
2018-06-21T07:14:38.555Z,24.29
2018-06-21T07:17:42.330Z,23.33
2018-06-21T07:20:45.689Z,23.48
2018-06-21T07:23:48.976Z,23.78
2018-06-21T07:26:54.138Z,22.73
2018-06-21T07:29:57.344Z,22.80
2018-06-21T07:33:00.568Z,23.99
2018-06-21T07:36:03.670Z,24.81
2018-06-21T07:39:07.684Z,24.10
2018-06-21T07:42:10.846Z,24.49
2018-06-21T07:45:13.975Z,23.87
2018-06-21T07:48:17.182Z,24.93
2018-06-21T07:51:20.273Z,23.66
2018-06-21T07:54:23.365Z,22.53
2018-06-21T07:57:26.508Z,22.57
2018-06-21T08:00:29.614Z,23.06
2018-06-21T08:03:32.838Z,22.75
2018-06-21T08:06:36.021Z,22.16
2018-06-21T08:09:39.095Z,22.33
2018-06-21T08:12:42.357Z,22.87
2018-06-21T08:15:45.548Z,22.71
2018-06-21T08:18:48.960Z,21.95
2018-06-21T08:21:52.022Z,22.04
2018-06-21T08:24:55.195Z,22.19
2018-06-21T08:27:58.387Z,22.32
2018-06-21T08:31:01.554Z,21.88
2018-06-21T08:34:04.705Z,21.69
2018-06-21T08:37:07.966Z,21.79
2018-06-21T08:40:11.064Z,21.94
2018-06-21T08:43:14.141Z,22.05
2018-06-21T08:46:17.316Z,21.81
2018-06-21T08:49:21.363Z,21.72
2018-06-21T08:52:24.497Z,20.86
2018-06-21T08:55:27.581Z,20.60
2018-06-21T08:58:30.980Z,20.41
2018-06-21T09:01:35.474Z,20.29
2018-06-21T09:04:38.565Z,20.17
2018-06-21T09:07:41.621Z,20.12
2018-06-21T09:10:44.725Z,19.87
2018-06-21T09:13:48.898Z,19.31
2018-06-21T09:16:52.057Z,19.10
2018-06-21T09:19:55.147Z,18.73
2018-06-21T09:22:58.228Z,18.47
2018-06-21T09:26:01.688Z,18.34
2018-06-21T09:29:06.028Z,18.07
2018-06-21T09:32:10.217Z,17.65
2018-06-21T09:35:13.401Z,17.28
2018-06-21T09:38:23.009Z,16.92
2018-06-21T09:41:31.724Z,16.79
2018-06-21T09:44:35.688Z,16.95
2018-06-21T09:47:44.557Z,17.20
2018-06-21T09:50:47.766Z,17.45
2018-06-21T09:53:50.877Z,18.02
2018-06-21T09:56:55.127Z,18.54
2018-06-21T09:59:58.319Z,18.61
2018-06-21T10:03:02.340Z,18.82
2018-06-21T10:06:05.481Z,19.08
2018-06-21T10:09:08.575Z,19.15
2018-06-21T10:12:11.626Z,19.40
2018-06-21T10:15:15.866Z,19.19
2018-06-21T10:18:18.955Z,19.50
2018-06-21T10:21:24.300Z,20.13
2018-06-21T10:24:27.456Z,19.91
2018-06-21T10:27:30.579Z,20.18
2018-06-21T10:30:33.753Z,20.15
2018-06-21T10:33:36.768Z,20.83
2018-06-21T10:36:39.888Z,21.65
2018-06-21T10:39:43.216Z,21.54
2018-06-21T10:42:46.400Z,21.60
2018-06-21T10:45:49.566Z,21.26
2018-06-21T10:48:53.747Z,20.31
2018-06-21T10:51:56.831Z,19.96
2018-06-21T10:55:00.054Z,20.14
2018-06-21T10:58:04.249Z,20.19
2018-06-21T11:01:07.406Z,20.49
2018-06-21T11:04:11.453Z,20.48
2018-06-21T11:07:15.804Z,19.91
2018-06-21T11:10:20.922Z,19.83
2018-06-21T11:13:24.096Z,20.31
2018-06-21T11:16:27.205Z,20.41
2018-06-21T11:19:30.357Z,20.27
2018-06-21T11:22:33.513Z,20.35
2018-06-21T11:25:36.642Z,20.99
2018-06-21T11:28:39.759Z,20.50
2018-06-21T11:31:42.997Z,20.58
2018-06-21T11:34:47.250Z,20.64
2018-06-21T11:37:50.464Z,21.03
2018-06-21T11:40:54.576Z,21.09
2018-06-21T11:43:58.723Z,21.24
2018-06-21T11:47:02.017Z,20.80
2018-06-21T11:50:05.400Z,21.06
2018-06-21T11:53:08.537Z,21.38
2018-06-21T11:56:11.681Z,21.28
2018-06-21T11:59:14.766Z,21.34
2018-06-21T12:02:17.872Z,21.71
2018-06-21T12:05:21.069Z,21.42
2018-06-21T12:08:25.202Z,21.45
2018-06-21T12:11:28.304Z,21.03
2018-06-21T12:14:32.476Z,20.72
2018-06-21T12:17:36.791Z,20.05
2018-06-21T12:20:39.984Z,19.91
2018-06-21T12:23:43.060Z,19.86
2018-06-21T12:26:46.546Z,19.80
2018-06-21T12:29:49.678Z,20.34
2018-06-21T12:32:54.000Z,20.81
2018-06-21T12:35:57.207Z,20.82
2018-06-21T12:39:00.547Z,20.89
2018-06-21T12:42:03.703Z,20.48
2018-06-21T12:45:06.888Z,20.34
2018-06-21T12:48:10.048Z,20.67
2018-06-21T12:51:13.155Z,20.98
2018-06-21T12:54:16.267Z,20.51
2018-06-21T12:57:19.488Z,20.51
2018-06-21T13:00:22.635Z,20.19
2018-06-21T13:03:26.636Z,19.66
2018-06-21T13:06:29.743Z,20.10
2018-06-21T13:12:47.645Z,20.57
2018-06-21T13:15:50.942Z,21.22
2018-06-21T13:18:55.222Z,21.11
2018-06-21T13:21:58.350Z,21.32
2018-06-21T13:25:01.617Z,20.87
2018-06-21T13:28:05.630Z,21.09
2018-06-21T13:31:08.824Z,21.21
2018-06-21T13:34:11.983Z,20.95
2018-06-21T13:37:15.630Z,21.07
2018-06-21T13:40:18.783Z,21.36
2018-06-21T13:43:21.944Z,21.13
2018-06-21T13:46:25.268Z,21.00
2018-06-21T13:49:28.250Z,21.47
2018-06-21T13:52:31.433Z,21.59
2018-06-21T13:55:34.836Z,21.48
2018-06-21T13:58:38.030Z,21.60
2018-06-21T14:01:41.295Z,21.19
2018-06-21T14:04:44.514Z,21.16
2018-06-21T14:07:47.969Z,20.88
2018-06-21T14:10:51.180Z,21.00
2018-06-21T14:13:56.724Z,20.96
2018-06-21T14:16:59.921Z,21.01
2018-06-21T14:20:03.268Z,20.66
2018-06-21T14:23:06.561Z,20.99
2018-06-21T14:26:09.560Z,21.52
2018-06-21T14:29:12.639Z,21.20
2018-06-21T14:32:15.818Z,21.02
2018-06-21T14:35:19.198Z,21.17
2018-06-21T14:38:22.255Z,21.31
2018-06-21T14:41:25.784Z,20.77
2018-06-21T14:44:28.892Z,20.15
2018-06-21T14:47:32.167Z,20.76
2018-06-21T14:50:35.253Z,20.64
2018-06-21T14:53:38.474Z,20.16
2018-06-21T14:56:41.758Z,20.51
2018-06-21T14:59:44.868Z,20.59
2018-06-21T15:02:48.155Z,20.78
2018-06-21T15:05:51.384Z,21.05
2018-06-21T15:08:54.459Z,20.84
2018-06-21T15:11:57.650Z,21.02
2018-06-21T15:15:00.920Z,20.82
2018-06-21T15:18:04.597Z,20.59
2018-06-21T15:21:07.849Z,20.88
2018-06-21T15:24:12.927Z,20.31
2018-06-21T15:27:16.011Z,20.78
2018-06-21T15:30:25.161Z,20.48
2018-06-21T15:33:32.771Z,20.90
2018-06-21T15:36:38.123Z,20.81
2018-06-21T15:39:44.305Z,20.72
2018-06-21T15:42:48.998Z,20.21
2018-06-21T15:45:54.880Z,20.18
2018-06-21T15:48:58.900Z,20.02
2018-06-21T15:52:11.285Z,20.31
2018-06-21T15:55:17.951Z,20.36
2018-06-21T15:58:23.631Z,19.54
2018-06-21T16:01:29.634Z,19.61
2018-06-21T16:04:37.828Z,20.20
2018-06-21T16:07:53.440Z,19.76
2018-06-21T16:10:59.320Z,20.01
2018-06-21T16:14:06.587Z,20.45
2018-06-21T16:17:15.670Z,20.20
2018-06-21T16:20:33.699Z,20.91
2018-06-21T16:30:02.964Z,20.84
2018-06-21T16:33:07.283Z,19.99
2018-06-21T16:36:13.780Z,20.41
2018-06-21T16:39:21.967Z,20.16
2018-06-21T16:42:26.460Z,20.23
2018-06-21T16:45:32.190Z,20.64
2018-06-21T16:48:38.004Z,19.90
2018-06-21T16:51:43.850Z,20.36
2018-06-21T16:54:49.990Z,19.26
2018-06-21T16:57:58.524Z,18.97
2018-06-21T17:01:04.709Z,19.65
2018-06-21T17:04:09.476Z,19.21
2018-06-21T17:07:17.895Z,20.21
2018-06-21T17:10:22.795Z,20.35
2018-06-21T17:13:28.379Z,20.71
2018-06-21T17:16:32.747Z,21.27
2018-06-21T17:19:38.586Z,20.47
2018-06-21T17:22:44.651Z,19.50
2018-06-21T17:25:49.009Z,19.73
2018-06-21T17:28:54.115Z,20.08
2018-06-21T17:32:11.841Z,19.37
2018-06-21T17:35:16.564Z,19.62
2018-06-21T17:38:21.079Z,19.54
2018-06-21T17:41:25.057Z,18.90
2018-06-21T17:44:30.215Z,18.22
2018-06-21T17:47:34.896Z,17.03
2018-06-21T17:50:46.534Z,16.86
2018-06-21T17:53:52.100Z,17.53
2018-06-21T17:56:57.187Z,17.49
2018-06-21T18:02:50.968Z,17.32
2018-06-21T18:06:00.748Z,17.45
2018-06-21T18:09:09.104Z,17.35
2018-06-21T18:12:14.014Z,17.18
2018-06-21T18:15:20.750Z,16.85
2018-06-21T18:18:24.694Z,16.88
2018-06-21T18:21:30.587Z,16.83
2018-06-21T18:24:36.081Z,16.68
2018-06-21T18:27:42.755Z,16.80
2018-06-21T18:30:49.573Z,16.79
2018-06-21T18:33:55.142Z,16.52
2018-06-21T18:37:00.039Z,16.18
2018-06-21T18:40:04.334Z,16.16
2018-06-21T18:43:09.301Z,15.99
2018-06-21T18:46:31.608Z,16.02
2018-06-21T18:49:35.961Z,15.74
2018-06-21T18:52:43.330Z,15.63
2018-06-21T18:55:51.286Z,15.15
2018-06-21T18:58:56.414Z,14.79
2018-06-21T19:01:59.823Z,14.75
2018-06-21T19:05:14.068Z,14.58
2018-06-21T19:08:25.746Z,14.37
2018-06-21T19:11:34.906Z,14.31
2018-06-21T19:14:38.703Z,14.24
2018-06-21T19:17:44.073Z,14.17
2018-06-21T19:20:48.456Z,14.14
2018-06-21T19:23:59.497Z,14.00
2018-06-21T19:27:06.885Z,13.80
2018-06-21T19:30:11.752Z,13.69
2018-06-21T19:33:26.174Z,13.59
2018-06-21T19:36:30.416Z,13.42
2018-06-21T19:39:39.531Z,13.42
2018-06-21T19:43:00.120Z,13.47
2018-06-21T19:46:39.730Z,13.43
2018-06-21T19:49:43.849Z,13.34
2018-06-21T19:52:48.089Z,13.28
2018-06-21T19:55:52.766Z,13.17
2018-06-21T19:58:57.868Z,13.13
2018-06-21T20:02:04.063Z,13.16
2018-06-21T20:05:08.903Z,13.04
2018-06-21T20:08:15.861Z,13.01
2018-06-21T20:11:25.938Z,13.14
2018-06-21T20:14:30.292Z,13.01
2018-06-21T20:17:35.188Z,12.89
2018-06-21T20:20:45.795Z,12.87
2018-06-21T20:23:52.085Z,12.66
2018-06-21T20:26:58.084Z,12.66
2018-06-21T20:30:01.129Z,12.70
2018-06-21T20:33:12.481Z,12.78
2018-06-21T20:36:16.660Z,12.77
2018-06-21T20:39:21.679Z,12.68
2018-06-21T20:42:27.983Z,12.59
2018-06-21T20:45:35.093Z,12.52
2018-06-21T20:48:41.959Z,12.43
2018-06-21T20:51:46.406Z,12.41
2018-06-21T20:54:52.692Z,12.43
2018-06-21T20:57:59.549Z,12.32
2018-06-21T21:01:03.774Z,12.16
2018-06-21T21:04:07.908Z,11.97
2018-06-21T21:07:12.398Z,11.95
2018-06-21T21:10:20.921Z,11.76
2018-06-21T21:13:26.753Z,12.03
2018-06-21T21:16:31.677Z,11.80
2018-06-21T21:19:38.500Z,11.49
2018-06-21T21:22:45.891Z,11.26
2018-06-21T21:25:50.073Z,11.17
2018-06-21T21:28:56.911Z,11.13
2018-06-21T21:32:01.098Z,11.06
2018-06-21T21:35:11.615Z,11.18
2018-06-21T21:38:17.214Z,11.48
2018-06-21T21:41:24.528Z,11.46
2018-06-21T21:44:35.704Z,11.55
2018-06-21T21:47:40.999Z,11.56
2018-06-21T21:50:45.083Z,11.81
2018-06-21T21:53:49.606Z,12.16
2018-06-21T22:04:25.607Z,12.22
2018-06-21T22:07:29.465Z,12.23
2018-06-21T22:10:32.524Z,12.15
2018-06-21T22:13:36.400Z,12.01
2018-06-21T22:16:41.215Z,11.98
2018-06-21T22:19:44.960Z,11.79
2018-06-21T22:22:48.530Z,11.51
2018-06-21T22:25:53.783Z,11.39
2018-06-21T22:28:57.205Z,11.30
2018-06-21T22:32:01.833Z,11.36
2018-06-21T22:35:05.604Z,11.40
2018-06-21T22:38:10.110Z,11.28
2018-06-21T22:44:22.749Z,11.22
2018-06-21T22:47:26.847Z,11.10
2018-06-21T22:50:30.908Z,10.99
2018-06-21T22:53:37.078Z,11.04
2018-06-21T22:56:41.557Z,11.09
2018-06-21T22:59:45.188Z,11.02
2018-06-21T23:02:49.128Z,11.03
2018-06-21T23:05:58.559Z,11.07
2018-06-21T23:09:03.478Z,10.94
2018-06-21T23:12:07.160Z,10.92
2018-06-21T23:15:10.724Z,10.85
2018-06-21T23:18:24.141Z,10.80
2018-06-21T23:21:28.211Z,10.76
2018-06-21T23:24:31.527Z,10.61
2018-06-21T23:27:36.436Z,10.59
2018-06-21T23:30:41.283Z,10.43
2018-06-21T23:33:45.958Z,10.44
2018-06-21T23:36:52.766Z,10.37
2018-06-21T23:39:56.351Z,10.31
2018-06-21T23:43:18.303Z,9.98
2018-06-21T23:46:23.631Z,9.71
2018-06-21T23:49:28.015Z,9.49
2018-06-21T23:52:32.831Z,9.34
2018-06-21T23:55:36.350Z,9.34
2018-06-21T23:58:40.588Z,9.34
